Hovedside
METAR-TAF:

METAR-TAF

Lufthavner :

Mariehamn, Finland

Mariehamn lufthavn

breddegrad: 60-07N, lengdegrad: 019-54E, høyde over havet: 6 m

Gjeldene værobservasjon

Denne rapporten ble laget for 15 minutter siden, klokken 22:20 UTC
Vind 5 kt fra Nord-nordvest
Temperatur 15°C
Luftfuktighet 94%
Trykk 1012 hPa
Sikt 10 km eller mer
Overskyet i en høyde av 4000 ft

METAR: EFMA 242220Z AUTO 34005KT 9999 OVC040 15/14 Q1012

Tid: 01:35 (22:35 UTC)

Varsel

Denne rapporten ble laget for 2 timer og 9 minutter siden, klokken 20:26 UTC
Varsel gyldig fra 24. klokken 21 UTC til 25. klokken 06 UTC
Vind 7 kt fra Nord
Sikt 10 km eller mer
Brutte skyer i en høyde av 2000 ft
Sannsynlighet 30%
fra 24. klokken 21 UTC til 24. klokken 24 UTC
Brutte skyer i en høyde av 1200 ft

TAF: EFMA 242026Z 2421/2506 36007KT 9999 BKN020 PROB30 2421/2424 BKN012

Værobservasjoner og værvarsel for over 4000 flyplasser (METAR- og TAF-rapporter).

Tilgjengelige stasjoner er representert av de røde og gule prikkene på kartet.

Hold musepekeren over prikken for å se navnet på stasjonen.

Klikk så for å se værobservasjoner og -varsler.

For å forandre kartet kan du klikke på den grønne knappen med svart kryss for å zoome inn, på den grønne knappen med strek for å zoome ut, eller på de grønne pilene for å se tilstøtende kart.


METAR-TAF: